Time;durP1;ratioP1;P1;durP2;ratioP2;P2;SDS_P1;SDS_P2;PMS_P1;PMS_P2;Temp;Humidity;BMP_temperature;BMP_pressure;BME280_temperature;BME280_humidity;BME280_pressure;Samples;Min_cycle;Max_cycle;Signal;HPM_P1;HPM_P2
2023/04/26 00:01:11;;;;;;;13.02;5.18;;;;;;;2.72;100.00;101860.97;4876376;29;20037;-72
2023/04/26 00:03:36;;;;;;;14.95;4.40;;;;;;;2.64;100.00;101853.66;4876439;29;20457;-71
2023/04/26 00:06:04;;;;;;;11.75;5.03;;;;;;;2.62;100.00;101852.97;4876483;29;20069;-72
2023/04/26 00:08:30;;;;;;;12.10;5.00;;;;;;;2.61;100.00;101856.56;4876534;29;20111;-72
2023/04/26 00:10:55;;;;;;;11.32;5.55;;;;;;;2.58;100.00;101862.06;4876546;29;20096;-72
2023/04/26 00:13:21;;;;;;;14.57;5.18;;;;;;;2.56;100.00;101855.25;4876768;29;20037;-72
2023/04/26 00:15:46;;;;;;;10.95;4.20;;;;;;;2.51;100.00;101854.75;4876267;29;20052;-72
2023/04/26 00:18:11;;;;;;;14.40;6.60;;;;;;;2.48;100.00;101855.84;4874963;29;20060;-72
2023/04/26 00:20:38;;;;;;;20.60;9.25;;;;;;;2.44;100.00;101854.41;4876405;29;20041;-72
2023/04/26 00:23:03;;;;;;;20.60;5.35;;;;;;;2.41;100.00;101852.00;4876306;29;20081;-72
2023/04/26 00:25:29;;;;;;;11.30;4.35;;;;;;;2.36;100.00;101848.91;4859529;29;20033;-72
2023/04/26 00:27:54;;;;;;;12.18;5.00;;;;;;;2.32;100.00;101852.72;4876227;29;20043;-72
2023/04/26 00:30:21;;;;;;;12.10;4.00;;;;;;;2.26;100.00;101847.94;4876238;29;20180;-72
2023/04/26 00:32:46;;;;;;;12.00;4.55;;;;;;;2.17;100.00;101845.06;4876268;29;20021;-72
2023/04/26 00:35:12;;;;;;;10.13;4.07;;;;;;;2.16;100.00;101853.88;4877734;29;20036;-72
2023/04/26 00:37:37;;;;;;;11.00;4.55;;;;;;;2.16;100.00;101847.78;4863258;29;20427;-72
2023/04/26 00:40:05;;;;;;;10.18;4.00;;;;;;;2.12;100.00;101844.56;4880067;29;20037;-72
2023/04/26 00:42:30;;;;;;;16.65;5.80;;;;;;;2.10;100.00;101856.16;4879772;29;20033;-71
2023/04/26 00:44:56;;;;;;;11.10;4.72;;;;;;;2.06;100.00;101857.34;4879779;29;20055;-71
2023/04/26 00:47:23;;;;;;;12.15;4.22;;;;;;;2.01;100.00;101855.03;4879896;29;20029;-72
2023/04/26 00:49:48;;;;;;;13.50;4.93;;;;;;;1.99;100.00;101859.56;4879847;29;20108;-72
2023/04/26 00:52:14;;;;;;;15.90;6.68;;;;;;;1.97;100.00;101853.63;4863176;29;20033;-72
2023/04/26 00:54:40;;;;;;;11.73;4.45;;;;;;;1.91;100.00;101843.53;4878454;29;20052;-72
2023/04/26 00:57:08;;;;;;;14.48;6.35;;;;;;;1.93;100.00;101852.16;4862993;29;20389;-72
2023/04/26 00:59:35;;;;;;;25.15;5.60;;;;;;;1.91;100.00;101852.28;4879623;29;20044;-72
2023/04/26 01:02:02;;;;;;;13.00;6.47;;;;;;;1.85;100.00;101844.84;4879612;29;20033;-71
2023/04/26 01:04:29;;;;;;;14.35;5.05;;;;;;;1.87;100.00;101844.75;4879626;29;20033;-71
2023/04/26 01:06:54;;;;;;;13.20;5.30;;;;;;;1.86;100.00;101848.31;4879710;29;20044;-72
2023/04/26 01:09:21;;;;;;;13.57;4.82;;;;;;;1.85;100.00;101854.53;4879606;29;20130;-72
2023/04/26 01:11:46;;;;;;;12.00;5.38;;;;;;;1.82;100.00;101852.13;4879457;29;20210;-71
2023/04/26 01:14:13;;;;;;;15.75;6.15;;;;;;;1.81;100.00;101847.81;4879234;29;20583;-71
2023/04/26 01:16:39;;;;;;;13.07;5.32;;;;;;;1.77;100.00;101841.94;4879582;29;20497;-71
2023/04/26 01:19:11;;;;;;;13.45;5.65;;;;;;;1.73;100.00;101846.63;4879411;29;20040;-72
2023/04/26 01:21:38;;;;;;;11.25;4.28;;;;;;;1.71;100.00;101845.88;4879184;29;20100;-72
2023/04/26 01:24:04;;;;;;;15.60;5.20;;;;;;;1.74;100.00;101858.78;4879200;29;20037;-71
2023/04/26 01:26:31;;;;;;;12.32;4.82;;;;;;;1.72;100.00;101858.06;4879901;29;20425;-72
2023/04/26 01:28:57;;;;;;;12.60;4.53;;;;;;;1.70;100.00;101857.38;4879104;29;20040;-72
2023/04/26 01:31:22;;;;;;;14.40;5.32;;;;;;;1.68;100.00;101854.00;4897154;29;20408;-72
2023/04/26 01:33:47;;;;;;;12.45;5.32;;;;;;;1.67;100.00;101859.38;4897053;29;20040;-72
2023/04/26 01:36:13;;;;;;;14.43;4.95;;;;;;;1.58;100.00;101857.44;4879769;29;20056;-72
2023/04/26 01:38:38;;;;;;;15.27;4.97;;;;;;;1.60;100.00;101859.00;4896907;29;20039;-72
2023/04/26 01:41:04;;;;;;;15.30;6.30;;;;;;;1.60;100.00;101855.50;4896846;29;20365;-72
2023/04/26 01:43:29;;;;;;;11.15;4.60;;;;;;;1.53;100.00;101858.59;4879870;29;20396;-71
2023/04/26 01:45:54;;;;;;;14.07;6.40;;;;;;;1.57;100.00;101861.00;4879702;29;20037;-72
2023/04/26 01:48:20;;;;;;;12.50;5.43;;;;;;;1.53;100.00;101858.59;4896754;29;20526;-71
2023/04/26 01:50:46;;;;;;;13.75;4.97;;;;;;;1.53;100.00;101852.50;4896733;29;20115;-71
2023/04/26 01:53:11;;;;;;;12.45;6.00;;;;;;;1.52;100.00;101856.94;4896697;29;20036;-71
2023/04/26 01:55:36;;;;;;;10.93;4.60;;;;;;;1.49;100.00;101853.66;4896699;29;20055;-72
2023/04/26 01:58:02;;;;;;;13.27;5.20;;;;;;;1.46;100.00;101859.16;4896497;29;20036;-72
2023/04/26 02:00:28;;;;;;;14.45;5.15;;;;;;;1.46;100.00;101859.16;4896705;29;20036;-72
2023/04/26 02:02:57;;;;;;;15.20;6.97;;;;;;;1.47;100.00;101855.59;4896399;29;20033;-71
2023/04/26 02:05:25;;;;;;;14.65;6.47;;;;;;;1.43;100.00;101857.59;4879486;29;20136;-71
2023/04/26 02:07:51;;;;;;;15.65;5.20;;;;;;;1.42;100.00;101855.91;4879926;29;20078;-72
2023/04/26 02:10:16;;;;;;;15.57;6.32;;;;;;;1.42;100.00;101862.97;4879466;29;20052;-71
2023/04/26 02:12:42;;;;;;;20.48;6.15;;;;;;;1.40;100.00;101857.00;4879733;29;20021;-71
2023/04/26 02:15:08;;;;;;;13.00;4.68;;;;;;;1.41;100.00;101863.91;4861376;29;20037;-72
2023/04/26 02:17:33;;;;;;;10.93;4.82;;;;;;;1.37;100.00;101855.41;4896206;29;20047;-72
2023/04/26 02:19:59;;;;;;;18.63;5.68;;;;;;;1.38;100.00;101857.09;4896213;29;20040;-72
2023/04/26 02:22:25;;;;;;;15.38;6.97;;;;;;;1.36;100.00;101853.72;4896047;29;20370;-72
2023/04/26 02:24:51;;;;;;;11.20;4.88;;;;;;;1.35;100.00;101854.69;4896045;29;20112;-71
2023/04/26 02:27:18;;;;;;;19.85;6.10;;;;;;;1.29;100.00;101855.97;4879156;29;20111;-71
2023/04/26 02:29:43;;;;;;;26.10;6.88;;;;;;;1.28;100.00;101856.94;4896026;29;20029;-72
2023/04/26 02:32:08;;;;;;;15.80;7.25;;;;;;;1.27;100.00;101857.88;4896050;29;20036;-72
2023/04/26 02:34:34;;;;;;;16.55;6.63;;;;;;;1.28;100.00;101867.44;4879186;29;20131;-72
2023/04/26 02:37:00;;;;;;;16.58;7.15;;;;;;;1.28;100.00;101854.31;4878741;29;20147;-72
2023/04/26 02:39:25;;;;;;;13.13;5.38;;;;;;;1.26;100.00;101853.56;4894593;29;20705;-71
2023/04/26 02:41:51;;;;;;;12.98;4.72;;;;;;;1.19;100.00;101841.81;4895706;29;20036;-72
2023/04/26 02:44:16;;;;;;;16.25;6.57;;;;;;;1.21;100.00;101841.72;4878930;29;20041;-72
2023/04/26 02:46:41;;;;;;;20.73;5.45;;;;;;;1.19;100.00;101843.63;4878771;29;20029;-72
2023/04/26 02:49:07;;;;;;;14.55;5.57;;;;;;;1.18;100.00;101848.03;4878725;29;20425;-72
2023/04/26 02:51:32;;;;;;;13.90;4.82;;;;;;;1.18;100.00;101840.16;4895602;29;20068;-71
2023/04/26 02:53:58;;;;;;;13.07;5.18;;;;;;;1.16;100.00;101849.09;4895479;29;20556;-72
2023/04/26 02:56:24;;;;;;;14.13;5.78;;;;;;;1.18;100.00;101847.19;4895538;29;20043;-72
2023/04/26 02:58:49;;;;;;;16.42;5.82;;;;;;;1.15;100.00;101842.97;4894737;29;20046;-72
2023/04/26 03:01:15;;;;;;;13.50;5.18;;;;;;;1.11;100.00;101843.34;4878442;29;20557;-71
2023/04/26 03:03:41;;;;;;;16.20;6.70;;;;;;;1.04;100.00;101835.88;4895425;29;20048;-72
2023/04/26 03:06:06;;;;;;;10.48;4.25;;;;;;;0.98;100.00;101838.94;4895363;29;20051;-72
2023/04/26 03:08:33;;;;;;;12.95;5.35;;;;;;;0.92;100.00;101835.91;4895421;29;20040;-71
2023/04/26 03:10:59;;;;;;;12.48;4.53;;;;;;;0.91;100.00;101842.13;4877462;29;20116;-72
2023/04/26 03:13:25;;;;;;;21.80;5.93;;;;;;;0.88;100.00;101843.19;4877263;29;20119;-72
2023/04/26 03:15:51;;;;;;;13.98;5.65;;;;;;;0.87;100.00;101839.72;4877164;29;20041;-72
2023/04/26 03:18:17;;;;;;;13.93;4.78;;;;;;;0.83;100.00;101833.00;4894692;29;20028;-71
2023/04/26 03:20:42;;;;;;;14.95;5.70;;;;;;;0.83;100.00;101838.25;4894989;29;20058;-71
2023/04/26 03:23:07;;;;;;;14.02;6.60;;;;;;;0.83;100.00;101835.63;4894839;29;20470;-72
2023/04/26 03:25:33;;;;;;;11.63;4.72;;;;;;;0.82;100.00;101839.22;4894914;29;20115;-71
2023/04/26 03:27:58;;;;;;;12.15;4.85;;;;;;;0.81;100.00;101834.06;4895004;29;20041;-75
2023/04/26 03:30:24;;;;;;;20.08;6.38;;;;;;;0.81;100.00;101828.81;4894829;29;20025;-75
2023/04/26 03:32:50;;;;;;;12.13;5.45;;;;;;;0.81;100.00;101831.44;4895061;29;20033;-75
2023/04/26 03:35:15;;;;;;;16.98;5.82;;;;;;;0.79;100.00;101830.72;4894810;29;20915;-75
2023/04/26 03:37:41;;;;;;;10.63;4.38;;;;;;;0.76;100.00;101826.53;4894526;29;20068;-75
2023/04/26 03:40:08;;;;;;;16.50;6.10;;;;;;;0.75;100.00;101829.25;4878112;29;20036;-75
2023/04/26 03:42:33;;;;;;;14.13;4.68;;;;;;;0.76;100.00;101826.53;4894838;29;20061;-74
2023/04/26 03:44:59;;;;;;;11.98;4.85;;;;;;;0.77;100.00;101830.81;4894580;29;20075;-75
2023/04/26 03:47:24;;;;;;;13.45;5.70;;;;;;;0.75;100.00;101818.75;4894567;29;20043;-75
2023/04/26 03:49:49;;;;;;;11.00;5.75;;;;;;;0.72;100.00;101811.91;4877855;29;20153;-75
2023/04/26 03:52:15;;;;;;;13.20;5.15;;;;;;;0.74;100.00;101823.16;4894472;29;20052;-75
2023/04/26 03:54:41;;;;;;;15.38;6.57;;;;;;;0.73;100.00;101823.25;4881575;29;20107;-75
2023/04/26 03:57:06;;;;;;;16.27;6.43;;;;;;;0.70;100.00;101823.47;4859995;29;20488;-75
2023/04/26 03:59:31;;;;;;;12.18;5.30;;;;;;;0.67;100.00;101821.91;4889205;29;20036;-75
2023/04/26 04:01:57;;;;;;;17.38;6.10;;;;;;;0.68;100.00;101828.81;4877513;29;20083;-75
2023/04/26 04:04:22;;;;;;;14.07;6.60;;;;;;;0.67;100.00;101827.16;4894227;29;20079;-75
2023/04/26 04:06:47;;;;;;;13.40;6.53;;;;;;;0.69;100.00;101830.53;4894247;29;20089;-75
2023/04/26 04:09:13;;;;;;;16.02;5.70;;;;;;;0.68;100.00;101830.63;4893654;29;20044;-75
2023/04/26 04:11:38;;;;;;;15.70;6.15;;;;;;;0.67;100.00;101832.41;4877406;29;20036;-75
2023/04/26 04:14:03;;;;;;;12.68;4.95;;;;;;;0.63;100.00;101823.91;4876307;29;20188;-75
2023/04/26 04:16:29;;;;;;;16.63;5.90;;;;;;;0.64;100.00;101830.00;4893895;29;20043;-75
2023/04/26 04:18:54;;;;;;;15.77;5.35;;;;;;;0.61;100.00;101832.84;4869039;29;20524;-75
2023/04/26 04:21:20;;;;;;;14.95;6.65;;;;;;;0.57;100.00;101834.84;4876103;29;20041;-75
2023/04/26 04:23:45;;;;;;;15.90;5.95;;;;;;;0.52;100.00;101828.22;4876171;29;20035;-75
2023/04/26 04:26:14;;;;;;;14.63;5.40;;;;;;;0.54;100.00;101840.31;4876517;29;20039;-75
2023/04/26 04:28:40;;;;;;;13.50;6.35;;;;;;;0.54;100.00;101834.22;4893683;29;20047;-75
2023/04/26 04:31:08;;;;;;;14.40;5.22;;;;;;;0.47;100.00;101820.66;4893908;29;20044;-75
2023/04/26 04:33:34;;;;;;;13.77;5.82;;;;;;;0.60;100.00;101839.03;4893898;29;20374;-75
2023/04/26 04:35:59;;;;;;;17.90;6.05;;;;;;;0.57;100.00;101829.59;4893928;29;20035;-75
2023/04/26 04:38:25;;;;;;;13.40;7.75;;;;;;;0.61;100.00;101833.69;4893881;29;20416;-75
2023/04/26 04:40:51;;;;;;;12.45;5.30;;;;;;;0.54;100.00;101824.56;4893861;29;20037;-75
2023/04/26 04:43:16;;;;;;;15.40;6.45;;;;;;;0.69;100.00;101843.66;4893820;29;20040;-75
2023/04/26 04:45:42;;;;;;;12.40;4.82;;;;;;;0.68;100.00;101835.88;4894174;29;20033;-75
2023/04/26 04:48:08;;;;;;;11.73;5.07;;;;;;;0.72;100.00;101840.81;4876897;29;20040;-75
2023/04/26 04:50:34;;;;;;;13.65;5.22;;;;;;;0.89;100.00;101847.47;4893653;29;20059;-75
2023/04/26 04:53:00;;;;;;;20.95;6.57;;;;;;;0.92;100.00;101849.91;4877813;29;20064;-75
2023/04/26 04:55:25;;;;;;;19.42;6.47;;;;;;;1.03;100.00;101852.59;4875982;29;20021;-75
2023/04/26 04:57:51;;;;;;;14.60;6.22;;;;;;;1.08;100.00;101847.03;4876006;29;20695;-75
2023/04/26 05:00:16;;;;;;;21.05;7.40;;;;;;;1.23;100.00;101843.28;4859266;29;20087;-75
2023/04/26 05:02:42;;;;;;;17.67;6.93;;;;;;;1.54;100.00;101862.88;4858863;29;20041;-75
2023/04/26 05:05:08;;;;;;;25.63;8.00;;;;;;;1.75;100.00;101849.94;4875751;29;20029;-75
2023/04/26 05:07:34;;;;;;;25.17;6.93;;;;;;;1.97;100.00;101843.09;4875530;29;20418;-75
2023/04/26 05:09:59;;;;;;;15.55;7.00;;;;;;;2.23;100.00;101849.00;4875822;29;20108;-75
2023/04/26 05:12:25;;;;;;;17.92;6.28;;;;;;;2.68;100.00;101864.00;4875844;29;20060;-75
2023/04/26 05:14:50;;;;;;;15.75;6.70;;;;;;;3.29;100.00;101864.38;4891709;29;20036;-72
2023/04/26 05:17:15;;;;;;;14.50;6.40;;;;;;;4.12;100.00;101862.81;4879876;29;20108;-75
2023/04/26 05:19:41;;;;;;;20.17;7.57;;;;;;;5.25;100.00;101860.06;4882482;29;20143;-75
2023/04/26 05:22:06;;;;;;;16.80;7.53;;;;;;;5.89;98.51;101867.47;4893412;29;20071;-75
2023/04/26 05:24:31;;;;;;;18.70;7.88;;;;;;;6.15;95.01;101872.19;4897087;29;20040;-76
2023/04/26 05:26:58;;;;;;;16.63;7.22;;;;;;;6.61;92.34;101872.34;4895977;29;20028;-75
2023/04/26 05:29:27;;;;;;;14.20;6.28;;;;;;;6.64;92.62;101870.25;4879168;29;20474;-75
2023/04/26 05:31:53;;;;;;;13.50;5.90;;;;;;;6.72;90.93;101859.75;4879031;29;20120;-76
2023/04/26 05:34:18;;;;;;;17.00;6.55;;;;;;;7.74;87.82;101873.75;4882183;29;20123;-75
2023/04/26 05:36:43;;;;;;;16.70;5.97;;;;;;;8.02;84.52;101866.53;4896809;29;20068;-76
2023/04/26 05:39:09;;;;;;;17.75;6.05;;;;;;;7.59;84.54;101854.88;4887007;29;20052;-82
2023/04/26 05:41:35;;;;;;;13.82;6.57;;;;;;;7.07;85.93;101860.81;4887037;29;20040;-80
2023/04/26 05:44:00;;;;;;;13.75;5.50;;;;;;;6.55;88.63;101879.91;4884475;29;20105;-77
2023/04/26 05:46:25;;;;;;;17.20;6.18;;;;;;;6.15;89.94;101870.38;4888813;29;20033;-76
2023/04/26 05:48:51;;;;;;;13.50;6.18;;;;;;;5.87;91.99;101871.25;4879858;29;20059;-77
2023/04/26 05:51:16;;;;;;;14.95;6.75;;;;;;;5.58;92.67;101874.72;4896770;29;20044;-77
2023/04/26 05:53:42;;;;;;;13.00;6.18;;;;;;;5.25;93.88;101875.94;4879938;29;20076;-77
2023/04/26 05:56:08;;;;;;;13.82;6.35;;;;;;;4.92;95.42;101870.00;4881725;29;20463;-77
2023/04/26 05:58:33;;;;;;;23.17;8.07;;;;;;;4.65;96.66;101878.53;4870529;29;20487;-77
2023/04/26 06:00:59;;;;;;;16.20;6.72;;;;;;;4.44;98.36;101886.47;4862496;29;20115;-75
2023/04/26 06:03:24;;;;;;;15.57;7.03;;;;;;;4.26;99.81;101880.97;4861621;29;20469;-75
2023/04/26 06:05:50;;;;;;;15.80;7.20;;;;;;;4.29;100.00;101878.06;4880279;29;20346;-77
2023/04/26 06:08:15;;;;;;;18.73;8.05;;;;;;;4.46;100.00;101878.44;4881444;29;20044;-76
2023/04/26 06:10:40;;;;;;;19.58;8.02;;;;;;;4.87;100.00;101879.28;4864757;29;20485;-76
2023/04/26 06:13:06;;;;;;;13.52;6.55;;;;;;;5.33;98.67;101884.00;4881778;29;20124;-77
2023/04/26 06:15:31;;;;;;;16.52;7.07;;;;;;;5.58;98.90;101876.50;4882464;29;20044;-77
2023/04/26 06:17:57;;;;;;;19.60;7.72;;;;;;;5.62;97.48;101870.81;4888041;29;20043;-76
2023/04/26 06:20:22;;;;;;;17.45;7.60;;;;;;;5.64;99.14;101868.88;4861498;29;20040;-75
2023/04/26 06:22:47;;;;;;;27.77;9.85;;;;;;;5.79;98.47;101879.88;4877924;29;20041;-75
2023/04/26 06:25:13;;;;;;;17.35;7.25;;;;;;;5.95;98.16;101881.13;4877988;29;20507;-75
2023/04/26 06:27:39;;;;;;;18.10;10.32;;;;;;;6.02;100.00;101864.53;4877939;29;20076;-75
2023/04/26 06:30:06;;;;;;;20.38;9.98;;;;;;;6.20;100.00;101871.75;4877788;29;20045;-75
2023/04/26 06:32:32;;;;;;;20.25;9.07;;;;;;;6.36;97.24;101878.13;4877132;29;20404;-75
2023/04/26 06:34:57;;;;;;;18.95;7.97;;;;;;;6.44;95.61;101868.63;4878021;29;20033;-75
2023/04/26 06:37:23;;;;;;;19.38;7.78;;;;;;;6.51;96.25;101880.34;4877634;29;20057;-75
2023/04/26 06:39:48;;;;;;;14.52;8.40;;;;;;;6.48;95.95;101891.22;4879044;29;20033;-75
2023/04/26 06:42:13;;;;;;;14.60;6.65;;;;;;;6.45;96.42;101888.88;4895664;29;20441;-74
2023/04/26 06:44:39;;;;;;;14.85;6.32;;;;;;;6.31;96.10;101888.34;4879036;29;20044;-71
2023/04/26 06:47:08;;;;;;;18.77;7.00;;;;;;;6.38;97.03;101893.91;4894618;29;20029;-74
2023/04/26 06:49:34;;;;;;;16.40;7.57;;;;;;;6.46;96.64;101899.31;4895683;29;20072;-74
2023/04/26 06:51:59;;;;;;;17.52;7.82;;;;;;;6.64;97.12;101906.53;4894603;29;20081;-74
2023/04/26 06:54:29;;;;;;;14.23;7.18;;;;;;;6.84;97.39;101904.63;4894621;29;20036;-74
2023/04/26 06:56:54;;;;;;;15.88;7.38;;;;;;;6.97;98.45;101897.19;4894518;29;20051;-74
2023/04/26 06:59:20;;;;;;;15.60;6.90;;;;;;;7.18;95.75;101905.72;4894528;29;20378;-74
2023/04/26 07:01:45;;;;;;;14.90;6.70;;;;;;;7.25;95.79;101897.97;4894638;29;20044;-74
2023/04/26 07:04:10;;;;;;;17.85;6.43;;;;;;;7.36;96.08;101900.44;4878283;29;20112;-75
2023/04/26 07:06:39;;;;;;;12.88;5.93;;;;;;;7.42;95.86;101904.31;4863460;29;20729;-74
2023/04/26 07:09:05;;;;;;;14.73;5.65;;;;;;;7.37;95.48;101904.75;4878663;29;20582;-74
2023/04/26 07:11:31;;;;;;;15.50;5.80;;;;;;;7.43;95.10;101904.16;4863655;29;20033;-71
2023/04/26 07:13:56;;;;;;;15.30;6.60;;;;;;;7.49;94.75;101902.72;4882109;29;20043;-72
2023/04/26 07:16:22;;;;;;;15.93;7.13;;;;;;;7.59;95.16;101897.34;4879161;29;20037;-73
2023/04/26 07:18:47;;;;;;;14.30;7.05;;;;;;;7.75;93.82;101912.59;4880090;29;20119;-73
2023/04/26 07:21:13;;;;;;;12.75;5.82;;;;;;;7.79;92.85;101893.56;4878683;29;20040;-73
2023/04/26 07:23:39;;;;;;;20.60;7.60;;;;;;;7.92;90.71;101903.78;4879394;29;20040;-73
2023/04/26 07:26:05;;;;;;;12.10;6.15;;;;;;;7.94;90.22;101893.00;4878422;29;20028;-71
2023/04/26 07:28:30;;;;;;;15.48;6.05;;;;;;;8.06;91.10;101891.78;4877026;29;20032;-71
2023/04/26 07:30:57;;;;;;;16.25;6.15;;;;;;;8.27;92.33;101910.03;4876555;29;20039;-73
2023/04/26 07:33:22;;;;;;;10.30;5.00;;;;;;;8.30;89.39;101905.22;4876943;29;20099;-73
2023/04/26 07:35:58;;;;;;;17.67;7.25;;;;;;;8.53;90.68;101902.09;4876829;29;20485;-73
2023/04/26 07:38:24;;;;;;;10.70;5.07;;;;;;;9.00;86.68;101899.00;4876789;29;20121;-72
2023/04/26 07:40:50;;;;;;;13.48;6.20;;;;;;;9.68;84.94;101897.19;4876983;29;20418;-72
2023/04/26 07:43:17;;;;;;;13.68;4.90;;;;;;;10.52;81.66;101896.00;4894401;29;20373;-72
2023/04/26 07:45:42;;;;;;;10.52;4.63;;;;;;;10.81;76.71;101892.72;4894613;29;20115;-72
2023/04/26 07:48:08;;;;;;;11.45;5.20;;;;;;;10.71;77.83;101890.25;4877766;29;20127;-72
2023/04/26 07:50:33;;;;;;;10.20;4.43;;;;;;;10.73;76.41;101890.91;4894395;29;20032;-72
2023/04/26 07:52:58;;;;;;;10.45;4.32;;;;;;;10.60;75.12;101889.81;4894531;29;20120;-72
2023/04/26 07:55:24;;;;;;;13.20;5.75;;;;;;;10.68;76.07;101895.09;4862127;29;20036;-72
2023/04/26 07:57:49;;;;;;;7.95;3.10;;;;;;;11.26;71.99;101904.53;4894274;29;20028;-72
2023/04/26 08:00:16;;;;;;;6.95;3.42;;;;;;;11.69;68.99;101901.44;4894294;29;20036;-72
2023/04/26 08:02:41;;;;;;;9.48;3.30;;;;;;;11.51;66.97;101893.72;4877443;29;20036;-72
2023/04/26 08:05:07;;;;;;;7.32;2.85;;;;;;;11.08;65.88;101902.16;4877400;29;20050;-73
2023/04/26 08:07:33;;;;;;;5.72;3.15;;;;;;;10.84;66.42;101913.72;4889197;29;20033;-74
2023/04/26 08:09:58;;;;;;;7.97;3.22;;;;;;;11.40;67.39;101903.81;4876234;29;20029;-72
2023/04/26 08:12:24;;;;;;;12.50;4.90;;;;;;;12.55;65.19;101896.69;4859164;29;20025;-72
2023/04/26 08:14:49;;;;;;;7.90;2.83;;;;;;;13.21;61.53;101902.09;4861089;29;20033;-73
2023/04/26 08:17:15;;;;;;;3.35;2.03;;;;;;;13.21;60.89;101894.88;4876921;29;20056;-73
2023/04/26 08:19:40;;;;;;;7.50;3.10;;;;;;;13.33;58.79;101914.00;4861844;29;20036;-73
2023/04/26 08:22:06;;;;;;;5.00;1.77;;;;;;;13.43;58.28;101916.38;4893945;29;20037;-73
2023/04/26 08:24:31;;;;;;;3.80;1.88;;;;;;;13.03;57.49;101895.28;4894081;29;20040;-74
2023/04/26 08:27:00;;;;;;;8.27;2.05;;;;;;;13.21;58.00;101910.97;4877149;29;20089;-72
2023/04/26 08:29:26;;;;;;;5.53;3.67;;;;;;;14.88;56.40;101900.66;4877064;29;20401;-72
2023/04/26 08:31:52;;;;;;;8.77;2.33;;;;;;;16.08;52.27;101903.63;4893892;29;20115;-72
2023/04/26 08:34:17;;;;;;;8.48;2.83;;;;;;;16.20;51.25;101901.16;4894066;29;20457;-72
2023/04/26 08:36:44;;;;;;;6.78;2.47;;;;;;;15.56;48.13;101898.00;4893844;29;20059;-72
2023/04/26 08:39:11;;;;;;;8.13;2.55;;;;;;;14.65;50.56;101897.44;4894068;29;20047;-72
2023/04/26 08:41:44;;;;;;;12.70;2.88;;;;;;;13.75;53.04;101902.50;4893969;29;20060;-72
2023/04/26 08:44:10;;;;;;;8.63;2.67;;;;;;;12.95;53.28;101890.03;4893841;29;20037;-72
2023/04/26 08:47:08;;;;;;;3.80;2.13;;;;;;;12.40;58.74;101900.19;4893871;29;20037;-72
2023/04/26 08:49:40;;;;;;;5.55;2.25;;;;;;;11.60;57.98;101917.50;4893763;29;20392;-72
2023/04/26 08:52:09;;;;;;;6.03;1.90;;;;;;;11.06;58.52;101898.81;4893878;29;20081;-72
2023/04/26 08:54:36;;;;;;;7.93;2.25;;;;;;;10.36;56.48;101898.69;4893667;29;20052;-72
2023/04/26 08:57:02;;;;;;;6.50;2.55;;;;;;;10.08;58.88;101901.69;4896529;29;20036;-73
2023/04/26 08:59:32;;;;;;;4.57;1.98;;;;;;;9.76;60.52;101908.66;4897359;29;20077;-74
2023/04/26 09:01:59;;;;;;;8.75;2.13;;;;;;;9.43;61.24;101894.47;4880435;29;20037;-74
2023/04/26 09:04:25;;;;;;;4.25;2.60;;;;;;;9.30;62.83;101897.63;4894072;29;20448;-73
2023/04/26 09:06:52;;;;;;;4.43;2.17;;;;;;;9.25;65.23;101897.28;4880508;29;20033;-77
2023/04/26 09:09:18;;;;;;;7.15;1.80;;;;;;;9.26;63.49;101903.41;4879229;29;20399;-77
2023/04/26 09:11:58;;;;;;;9.85;2.67;;;;;;;9.24;63.95;101897.41;4882848;29;20025;-72
2023/04/26 09:14:25;;;;;;;5.82;2.88;;;;;;;9.23;63.99;101898.44;4896059;29;20519;-73
2023/04/26 09:16:51;;;;;;;7.78;3.38;;;;;;;9.24;63.47;101889.44;4895442;29;20040;-76
2023/04/26 09:19:17;;;;;;;4.68;2.30;;;;;;;9.25;64.13;101891.09;4897320;29;20036;-75
2023/04/26 09:21:44;;;;;;;3.95;2.25;;;;;;;9.34;62.85;101884.81;4888073;29;20040;-75
2023/04/26 09:24:10;;;;;;;7.25;2.30;;;;;;;9.48;62.43;101891.31;4875316;29;20032;-74
2023/04/26 09:26:35;;;;;;;13.05;3.53;;;;;;;9.56;62.95;101894.84;4879175;29;20029;-74
2023/04/26 09:29:15;;;;;;;7.90;2.90;;;;;;;9.53;63.32;101878.34;4885100;29;20048;-76
2023/04/26 09:31:48;;;;;;;3.72;2.03;;;;;;;9.53;63.65;101884.50;4896797;29;20032;-76
2023/04/26 09:34:15;;;;;;;4.53;1.77;;;;;;;9.60;64.25;101892.69;4879183;29;20080;-76
2023/04/26 09:36:46;;;;;;;12.48;3.75;;;;;;;9.64;62.54;101884.19;4895953;29;20056;-76
2023/04/26 09:39:12;;;;;;;5.10;2.45;;;;;;;9.62;62.89;101882.69;4896509;29;20100;-75
2023/04/26 09:41:44;;;;;;;8.18;1.98;;;;;;;9.79;63.44;101891.53;4877308;29;20040;-82
2023/04/26 09:44:22;;;;;;;4.93;2.47;;;;;;;9.95;65.09;101890.69;4882315;29;20040;-75
2023/04/26 09:47:17;;;;;;;8.30;2.13;;;;;;;10.17;64.78;101903.34;4878286;29;20366;-76
2023/04/26 09:49:43;;;;;;;7.28;2.58;;;;;;;10.20;61.92;101894.19;4884212;29;20048;-76
2023/04/26 09:52:09;;;;;;;8.10;2.30;;;;;;;10.38;64.99;101894.84;4880979;29;20076;-76
2023/04/26 09:54:39;;;;;;;4.25;1.98;;;;;;;10.67;64.92;101896.13;4878686;29;20037;-75
2023/04/26 09:57:05;;;;;;;8.70;3.20;;;;;;;10.89;65.03;101897.22;4884209;29;20039;-76
2023/04/26 09:59:53;;;;;;;10.45;2.83;;;;;;;11.19;65.11;101895.59;4895918;29;20059;-76
2023/04/26 10:02:24;;;;;;;6.07;2.60;;;;;;;11.26;63.48;101885.00;4878391;29;20037;-76
2023/04/26 10:04:53;;;;;;;7.00;2.00;;;;;;;11.16;61.63;101880.75;4864484;29;20433;-76
2023/04/26 10:07:21;;;;;;;8.10;2.40;;;;;;;11.12;61.52;101886.59;4863977;29;20698;-76
2023/04/26 10:09:48;;;;;;;5.55;2.00;;;;;;;11.03;60.59;101890.28;4896121;29;20048;-76
2023/04/26 10:12:15;;;;;;;5.47;1.85;;;;;;;11.02;63.15;101885.97;4878324;29;20033;-76
2023/04/26 10:14:43;;;;;;;6.53;2.20;;;;;;;10.93;61.33;101886.03;4876750;29;20535;-76
2023/04/26 10:17:10;;;;;;;4.75;1.77;;;;;;;10.89;60.30;101881.19;4896099;29;20041;-76
2023/04/26 10:19:37;;;;;;;12.15;2.72;;;;;;;10.83;57.56;101879.22;4896130;29;20480;-76
2023/04/26 10:22:34;;;;;;;8.20;3.17;;;;;;;11.06;64.24;101897.97;4895973;29;20036;-76
2023/04/26 10:25:00;;;;;;;4.97;2.30;;;;;;;11.04;62.79;101881.31;4884732;29;20131;-76
2023/04/26 10:27:44;;;;;;;4.85;2.63;;;;;;;11.19;60.61;101895.59;4879109;29;20119;-76
2023/04/26 10:30:13;;;;;;;7.20;2.33;;;;;;;11.18;60.61;101894.72;4870739;29;20097;-76
2023/04/26 10:32:51;;;;;;;5.50;2.25;;;;;;;11.20;59.41;101878.53;4878053;29;20153;-76
2023/04/26 10:35:18;;;;;;;3.45;2.47;;;;;;;11.07;63.10;101881.78;4877856;29;20040;-76
2023/04/26 10:38:09;;;;;;;2.60;1.67;;;;;;;10.91;59.96;101885.34;4877789;29;20049;-76
2023/04/26 10:40:39;;;;;;;8.68;2.63;;;;;;;10.70;58.94;101880.59;4875083;29;20045;-76
2023/04/26 10:43:07;;;;;;;3.88;1.75;;;;;;;10.78;61.92;101879.72;4895694;29;20036;-77
2023/04/26 10:45:33;;;;;;;7.07;2.15;;;;;;;10.80;63.05;101877.72;4895672;29;20084;-76
2023/04/26 10:48:27;;;;;;;5.97;2.47;;;;;;;11.01;62.63;101870.97;4878935;29;20036;-76
2023/04/26 10:51:04;;;;;;;3.30;1.92;;;;;;;10.94;58.23;101866.31;4889774;29;20450;-76
2023/04/26 10:53:52;;;;;;;5.15;2.13;;;;;;;11.01;62.52;101871.81;4895762;29;20028;-76
2023/04/26 10:56:26;;;;;;;2.30;1.75;;;;;;;11.07;56.96;101867.59;4878595;29;20075;-76
2023/04/26 10:59:08;;;;;;;5.00;1.92;;;;;;;11.27;58.61;101862.66;4895501;29;20040;-76
2023/04/26 11:01:33;;;;;;;2.30;1.30;;;;;;;11.33;53.40;101867.28;4892231;29;20032;-77
2023/04/26 11:03:58;;;;;;;4.28;2.25;;;;;;;11.28;53.96;101864.31;4864757;29;20033;-76
2023/04/26 11:06:25;;;;;;;3.53;2.00;;;;;;;11.16;54.11;101853.19;4878469;29;20476;-76
2023/04/26 11:08:52;;;;;;;2.78;1.75;;;;;;;11.03;53.55;101864.47;4893923;29;20304;-81
2023/04/26 11:11:21;;;;;;;4.50;2.00;;;;;;;10.93;52.82;101867.34;4886743;29;20116;-81
2023/04/26 11:13:46;;;;;;;6.18;3.35;;;;;;;10.96;53.19;101869.66;4871088;29;20048;-81
2023/04/26 11:16:16;;;;;;;5.88;2.22;;;;;;;11.03;55.70;101869.81;4887620;29;20080;-82
2023/04/26 11:18:43;;;;;;;4.30;1.95;;;;;;;10.98;52.42;101848.13;4886857;29;20055;-82
2023/04/26 11:21:10;;;;;;;4.07;2.15;;;;;;;11.15;52.10;101860.38;4887453;29;20033;-82